Time;durP1;ratioP1;P1;durP2;ratioP2;P2;SDS_P1;SDS_P2;PMS_P1;PMS_P2;Temp;Humidity;BMP_temperature;BMP_pressure;BME280_temperature;BME280_humidity;BME280_pressure;Samples;Min_cycle;Max_cycle;Signal;HPM_P1;HPM_P2
2023/06/02 00:01:13;;;;;;;8.85;7.95;;;;;;;16.55;87.34;94925.91;5006239;28;20222;-63
2023/06/02 00:03:43;;;;;;;12.43;8.05;;;;;;;16.58;87.28;94918.03;5007764;28;20211;-61
2023/06/02 00:06:14;;;;;;;8.02;7.28;;;;;;;16.64;87.32;94920.25;5006194;28;20708;-60
2023/06/02 00:08:41;;;;;;;8.43;7.72;;;;;;;16.65;87.08;94912.47;5008206;28;20276;-62
2023/06/02 00:11:09;;;;;;;11.93;8.65;;;;;;;16.62;87.05;94909.22;5005787;28;20353;-60
2023/06/02 00:13:36;;;;;;;8.88;8.07;;;;;;;16.49;87.36;94903.19;5008141;28;20203;-61
2023/06/02 00:16:03;;;;;;;12.23;8.60;;;;;;;16.63;87.03;94913.44;5006805;28;20642;-60
2023/06/02 00:18:33;;;;;;;9.13;8.32;;;;;;;16.66;86.98;94918.44;5008705;28;20293;-62
2023/06/02 00:21:02;;;;;;;8.27;7.57;;;;;;;16.64;86.92;94915.13;5005794;28;20693;-61
2023/06/02 00:23:29;;;;;;;9.52;8.20;;;;;;;16.63;87.05;94908.31;5007829;28;20300;-60
2023/06/02 00:25:57;;;;;;;8.60;7.70;;;;;;;16.54;87.45;94911.44;5006476;28;21170;-63
2023/06/02 00:28:24;;;;;;;8.65;7.95;;;;;;;16.54;87.63;94908.88;5006832;28;20239;-63
2023/06/02 00:30:50;;;;;;;9.73;8.05;;;;;;;16.52;87.90;94911.53;5004882;28;20324;-62
2023/06/02 00:33:17;;;;;;;8.23;7.53;;;;;;;16.54;87.83;94908.88;5008001;28;20207;-62
2023/06/02 00:35:44;;;;;;;9.52;8.52;;;;;;;16.51;87.86;94897.06;5007001;28;20288;-62
2023/06/02 00:38:12;;;;;;;9.20;8.32;;;;;;;16.58;87.87;94905.22;5006906;28;20292;-61
2023/06/02 00:40:39;;;;;;;11.27;8.65;;;;;;;16.58;87.57;94908.56;5006290;28;20215;-63
2023/06/02 00:43:06;;;;;;;9.27;8.48;;;;;;;16.58;87.66;94900.09;5006988;28;20238;-61
2023/06/02 00:45:33;;;;;;;9.88;7.75;;;;;;;16.62;87.48;94901.53;5007160;28;21450;-62
2023/06/02 00:48:01;;;;;;;10.93;8.07;;;;;;;16.72;87.17;94897.53;5005818;28;20205;-61
2023/06/02 00:50:28;;;;;;;8.55;7.72;;;;;;;16.76;86.92;94906.72;5006731;28;20314;-61
2023/06/02 00:52:57;;;;;;;8.73;7.80;;;;;;;16.73;87.27;94904.31;5006886;28;20297;-62
2023/06/02 00:55:27;;;;;;;11.35;8.55;;;;;;;16.63;87.62;94903.19;5006805;28;21571;-62
2023/06/02 00:57:56;;;;;;;10.65;8.63;;;;;;;16.57;88.23;94894.13;5006259;28;20381;-60
2023/06/02 01:00:23;;;;;;;8.82;8.00;;;;;;;16.49;88.62;94896.31;5006018;28;20207;-61
2023/06/02 01:02:50;;;;;;;9.77;8.75;;;;;;;16.42;89.17;94891.63;5001411;28;20217;-62
2023/06/02 01:05:19;;;;;;;8.98;8.07;;;;;;;16.39;89.40;94889.25;5006254;28;20308;-62
2023/06/02 01:07:48;;;;;;;8.95;8.02;;;;;;;16.39;89.63;94879.81;5005361;28;20340;-62
2023/06/02 01:10:16;;;;;;;11.65;9.68;;;;;;;16.42;89.43;94883.94;5005461;28;20294;-63
2023/06/02 01:12:45;;;;;;;8.30;7.57;;;;;;;16.40;89.83;94881.47;5002900;28;20290;-62
2023/06/02 01:15:12;;;;;;;9.30;8.27;;;;;;;16.40;89.71;94885.75;5004758;28;20319;-63
2023/06/02 01:17:45;;;;;;;7.85;7.15;;;;;;;16.48;89.46;94883.59;5005934;28;20321;-63
2023/06/02 01:20:13;;;;;;;8.43;7.65;;;;;;;16.54;89.31;94884.03;5004969;28;21183;-63
2023/06/02 01:22:44;;;;;;;8.40;7.80;;;;;;;16.61;89.13;94876.78;5006306;28;20264;-62
2023/06/02 01:25:20;;;;;;;12.00;7.35;;;;;;;16.55;89.48;94879.75;5007880;28;20633;-61
2023/06/02 01:27:47;;;;;;;8.40;7.60;;;;;;;16.54;89.84;94876.34;5006611;28;20289;-62
2023/06/02 01:30:14;;;;;;;9.05;8.15;;;;;;;16.42;90.11;94873.69;5008024;28;20647;-62
2023/06/02 01:32:47;;;;;;;9.48;7.70;;;;;;;16.38;90.41;94872.19;5003530;28;20293;-62
2023/06/02 01:35:16;;;;;;;8.20;7.40;;;;;;;16.35;90.62;94873.22;5006045;28;20234;-61
2023/06/02 01:37:48;;;;;;;11.00;8.30;;;;;;;16.41;90.32;94874.59;5008899;28;20266;-62
2023/06/02 01:40:17;;;;;;;8.90;7.43;;;;;;;16.40;90.07;94875.50;5010505;28;20238;-60
2023/06/02 01:42:45;;;;;;;8.45;7.70;;;;;;;16.41;89.89;94872.03;5008364;28;20799;-61
2023/06/02 01:45:12;;;;;;;12.48;8.23;;;;;;;16.45;89.60;94876.06;5008661;28;21940;-61
2023/06/02 01:47:41;;;;;;;10.00;7.28;;;;;;;16.42;89.51;94878.81;5011350;28;22455;-63
2023/06/02 01:50:08;;;;;;;10.98;8.40;;;;;;;16.43;88.87;94862.50;5008993;28;20217;-61
2023/06/02 01:52:35;;;;;;;10.07;7.45;;;;;;;16.44;88.43;94867.53;5008373;28;20333;-60
2023/06/02 01:55:02;;;;;;;8.13;7.38;;;;;;;16.52;87.11;94879.94;5008687;28;20225;-63
2023/06/02 01:57:29;;;;;;;12.80;7.18;;;;;;;16.51;87.05;94868.00;5009251;28;20199;-61
2023/06/02 01:59:57;;;;;;;10.88;6.78;;;;;;;16.51;85.97;94871.41;5010106;28;20596;-62
2023/06/02 02:02:24;;;;;;;15.40;7.45;;;;;;;16.44;85.96;94871.84;5009960;28;20214;-61
2023/06/02 02:04:51;;;;;;;16.10;6.75;;;;;;;16.39;86.08;94873.84;5007854;28;20207;-62
2023/06/02 02:07:19;;;;;;;7.25;6.63;;;;;;;16.39;85.69;94871.28;5009767;28;20694;-62
2023/06/02 02:09:46;;;;;;;7.68;6.85;;;;;;;16.27;86.56;94873.69;5009489;28;20203;-62
2023/06/02 02:12:13;;;;;;;10.77;7.55;;;;;;;16.27;86.66;94871.13;5009791;28;20325;-62
2023/06/02 02:14:41;;;;;;;7.13;6.53;;;;;;;16.36;86.86;94863.78;5008186;28;20211;-62
2023/06/02 02:17:10;;;;;;;10.15;6.90;;;;;;;16.36;86.71;94868.91;5008592;28;20203;-60
2023/06/02 02:19:37;;;;;;;7.15;6.63;;;;;;;16.36;87.03;94869.72;5008406;28;20223;-61
2023/06/02 02:22:04;;;;;;;7.85;7.00;;;;;;;16.37;87.04;94865.44;5009347;28;20297;-62
2023/06/02 02:24:30;;;;;;;11.45;6.95;;;;;;;16.37;86.93;94868.00;5007786;28;20213;-62
2023/06/02 02:26:57;;;;;;;12.70;7.50;;;;;;;16.37;86.96;94865.44;5009932;28;20199;-62
2023/06/02 02:29:24;;;;;;;7.82;6.50;;;;;;;16.38;86.98;94867.06;5010367;28;20261;-63
2023/06/02 02:31:51;;;;;;;11.10;7.68;;;;;;;16.33;86.83;94865.59;5008752;28;20567;-61
2023/06/02 02:34:20;;;;;;;11.85;7.20;;;;;;;16.37;86.61;94870.56;5006870;28;20215;-63
2023/06/02 02:36:46;;;;;;;11.50;6.60;;;;;;;16.37;86.94;94865.44;5009869;28;20238;-62
2023/06/02 02:39:13;;;;;;;14.18;8.15;;;;;;;16.43;87.10;94865.06;5009753;28;20231;-62
2023/06/02 02:41:40;;;;;;;8.70;8.00;;;;;;;16.41;87.61;94865.16;5008143;28;20310;-62
2023/06/02 02:44:07;;;;;;;9.00;8.23;;;;;;;16.42;87.47;94860.84;5007331;28;20293;-61
2023/06/02 02:46:33;;;;;;;10.85;8.20;;;;;;;16.52;87.08;94865.34;5008604;28;20230;-62
2023/06/02 02:49:00;;;;;;;11.27;7.32;;;;;;;16.51;86.92;94863.72;5008672;28;20211;-62
2023/06/02 02:51:28;;;;;;;11.73;7.57;;;;;;;16.57;86.74;94862.53;5008963;28;20223;-62
2023/06/02 02:53:55;;;;;;;9.60;7.38;;;;;;;16.54;86.28;94862.69;5008519;28;20485;-64
2023/06/02 02:56:22;;;;;;;8.43;7.63;;;;;;;16.46;87.07;94859.75;5008106;28;20301;-62
2023/06/02 02:58:49;;;;;;;9.65;7.07;;;;;;;16.40;87.50;94860.13;5008541;28;20317;-63
2023/06/02 03:01:16;;;;;;;13.07;7.80;;;;;;;16.41;87.75;94862.59;5008912;28;20243;-63
2023/06/02 03:03:44;;;;;;;9.07;7.25;;;;;;;16.42;87.96;94860.84;5008392;28;20202;-62
2023/06/02 03:06:13;;;;;;;17.10;8.45;;;;;;;16.52;87.73;94864.53;5006965;28;20214;-62
2023/06/02 03:08:41;;;;;;;8.38;7.68;;;;;;;16.53;87.78;94861.06;5007559;28;20195;-62
2023/06/02 03:11:08;;;;;;;12.23;8.20;;;;;;;16.48;87.85;94863.06;5008430;28;20576;-62
2023/06/02 03:13:35;;;;;;;9.55;8.07;;;;;;;16.44;88.12;94861.59;5007852;28;20261;-62
2023/06/02 03:16:02;;;;;;;8.95;7.35;;;;;;;16.52;88.03;94873.06;5007126;28;20199;-61
2023/06/02 03:18:28;;;;;;;14.25;8.10;;;;;;;16.55;88.09;94867.75;5010155;28;20218;-62
2023/06/02 03:20:58;;;;;;;10.93;7.65;;;;;;;16.62;87.96;94868.19;5009903;28;20605;-66
2023/06/02 03:23:25;;;;;;;17.02;8.32;;;;;;;16.62;87.96;94865.63;5008047;28;20669;-60
2023/06/02 03:25:54;;;;;;;9.45;8.35;;;;;;;16.57;87.83;94865.09;5007435;28;20200;-63
2023/06/02 03:28:21;;;;;;;9.65;7.28;;;;;;;16.62;87.93;94865.63;5008807;28;20207;-61
2023/06/02 03:30:48;;;;;;;9.50;8.60;;;;;;;16.65;88.04;94863.72;5007465;28;20763;-63
2023/06/02 03:33:14;;;;;;;8.95;8.05;;;;;;;16.70;87.84;94868.56;5009746;28;20207;-62
2023/06/02 03:35:41;;;;;;;10.55;8.15;;;;;;;16.75;88.23;94869.13;5008497;28;20780;-64
2023/06/02 03:38:09;;;;;;;12.15;9.27;;;;;;;16.93;87.07;94869.75;5009311;28;21941;-62
2023/06/02 03:40:35;;;;;;;10.70;8.55;;;;;;;16.98;86.92;94867.72;5008882;28;20762;-62
2023/06/02 03:43:03;;;;;;;10.80;8.80;;;;;;;17.10;86.52;94861.00;5007849;28;20293;-61
2023/06/02 03:45:30;;;;;;;14.45;9.00;;;;;;;17.16;86.30;94863.19;5006668;28;21132;-64
2023/06/02 03:47:57;;;;;;;10.57;8.52;;;;;;;17.14;86.55;94859.88;5008159;28;20293;-60
2023/06/02 03:50:24;;;;;;;8.93;8.13;;;;;;;17.27;86.27;94861.59;5007989;28;21583;-61
2023/06/02 03:52:50;;;;;;;11.27;8.23;;;;;;;17.61;85.64;94856.88;5007303;28;20203;-63
2023/06/02 03:55:17;;;;;;;12.85;8.98;;;;;;;18.10;83.89;94864.81;5005396;28;20298;-64
2023/06/02 03:57:44;;;;;;;12.18;9.15;;;;;;;18.46;81.60;94856.41;5007331;28;20207;-62
2023/06/02 04:00:13;;;;;;;10.82;8.02;;;;;;;18.63;80.57;94842.41;5006241;28;20332;-62
2023/06/02 04:02:39;;;;;;;21.60;9.25;;;;;;;18.99;79.65;94847.59;5007109;28;20738;-62
2023/06/02 04:05:06;;;;;;;23.75;14.18;;;;;;;19.27;78.68;94841.34;5007545;28;20308;-63
2023/06/02 04:07:33;;;;;;;33.00;23.08;;;;;;;19.58;77.79;94845.13;5007054;28;20302;-62
2023/06/02 04:10:00;;;;;;;20.92;14.88;;;;;;;19.90;75.98;94847.94;5008093;28;20286;-62
2023/06/02 04:12:26;;;;;;;14.55;9.93;;;;;;;20.28;74.23;94852.84;5008824;28;20700;-61
2023/06/02 04:14:54;;;;;;;11.55;9.07;;;;;;;20.56;72.84;94861.09;5007735;28;20595;-61
2023/06/02 04:17:22;;;;;;;20.92;8.57;;;;;;;20.88;71.22;94856.88;5008879;28;20214;-63
2023/06/02 04:19:48;;;;;;;14.98;8.93;;;;;;;21.26;70.28;94860.88;5009278;28;20314;-62
2023/06/02 04:22:15;;;;;;;43.70;26.25;;;;;;;21.67;68.27;94855.81;5008764;28;20241;-62
2023/06/02 04:24:42;;;;;;;49.83;27.50;;;;;;;22.03;66.76;94853.78;5006910;28;20702;-62
2023/06/02 04:27:08;;;;;;;19.63;13.68;;;;;;;22.33;65.74;94847.84;5007615;28;20748;-62
2023/06/02 04:29:37;;;;;;;11.30;10.20;;;;;;;22.55;65.23;94850.28;5006514;28;20286;-62
2023/06/02 04:32:04;;;;;;;11.27;8.88;;;;;;;22.70;64.45;94855.97;5008907;28;20214;-61
2023/06/02 04:34:32;;;;;;;10.95;9.52;;;;;;;22.80;63.74;94848.25;5007016;28;20707;-62
2023/06/02 04:36:58;;;;;;;14.65;9.25;;;;;;;22.91;63.29;94853.34;5008519;28;20377;-63
2023/06/02 04:39:25;;;;;;;12.13;9.43;;;;;;;22.95;63.23;94839.19;5007672;28;20231;-63
2023/06/02 04:41:52;;;;;;;13.15;8.68;;;;;;;23.02;62.64;94846.28;5006769;28;20211;-64
2023/06/02 04:44:19;;;;;;;15.07;9.63;;;;;;;23.06;62.62;94857.22;5005956;28;20217;-61
2023/06/02 04:46:45;;;;;;;19.65;8.52;;;;;;;23.07;62.57;94846.72;5007305;28;20322;-63
2023/06/02 04:49:12;;;;;;;10.20;8.20;;;;;;;23.18;61.61;94853.56;5005403;28;20222;-63
2023/06/02 04:51:40;;;;;;;16.35;10.55;;;;;;;23.12;61.96;94854.09;5007352;28;20230;-62
2023/06/02 04:54:07;;;;;;;10.40;9.25;;;;;;;23.28;61.13;94856.16;5005339;28;20211;-63
2023/06/02 04:56:35;;;;;;;16.02;9.50;;;;;;;23.29;61.03;94853.44;5008017;28;20234;-63
2023/06/02 04:59:01;;;;;;;10.05;9.02;;;;;;;23.43;60.86;94854.84;5006403;28;20226;-63
2023/06/02 05:01:28;;;;;;;11.05;9.57;;;;;;;23.47;60.63;94856.22;5005887;28;20290;-63
2023/06/02 05:03:55;;;;;;;19.50;10.85;;;;;;;23.69;59.77;94850.81;5004242;28;20660;-62
2023/06/02 05:06:22;;;;;;;12.27;8.90;;;;;;;24.18;57.87;94862.00;5005545;28;20206;-63
2023/06/02 05:08:51;;;;;;;11.32;8.55;;;;;;;24.50;57.05;94861.69;5004866;28;20606;-63
2023/06/02 05:11:18;;;;;;;12.18;8.25;;;;;;;24.54;57.29;94865.63;5004064;28;20203;-64
2023/06/02 05:13:45;;;;;;;15.10;8.75;;;;;;;24.60;57.12;94862.47;5005450;28;20282;-62
2023/06/02 05:16:12;;;;;;;15.02;8.82;;;;;;;24.46;57.14;94862.94;5004417;28;20213;-64
2023/06/02 05:18:38;;;;;;;14.48;9.07;;;;;;;24.31;57.83;94866.91;5007491;28;20729;-61
2023/06/02 05:21:05;;;;;;;10.35;8.85;;;;;;;24.32;57.70;94866.78;5006389;28;20313;-63
2023/06/02 05:23:32;;;;;;;10.63;7.97;;;;;;;24.36;57.41;94869.91;5006734;28;20213;-64
2023/06/02 05:26:00;;;;;;;10.63;7.45;;;;;;;24.29;56.85;94861.03;5006283;28;20294;-63
2023/06/02 05:28:26;;;;;;;9.35;7.90;;;;;;;24.35;56.72;94866.50;5008022;28;20253;-63
2023/06/02 05:30:53;;;;;;;12.00;8.20;;;;;;;24.37;55.71;94866.38;5007599;28;20294;-62
2023/06/02 05:33:20;;;;;;;10.52;8.25;;;;;;;24.54;55.18;94859.63;5007472;28;20214;-63
2023/06/02 05:35:46;;;;;;;10.68;8.38;;;;;;;24.84;54.38;94862.00;5006122;28;20326;-63
2023/06/02 05:38:17;;;;;;;10.70;9.40;;;;;;;25.31;53.78;94861.94;5006757;28;20677;-63
2023/06/02 05:40:43;;;;;;;17.90;9.15;;;;;;;25.92;52.74;94867.31;5006427;28;20226;-61
2023/06/02 05:43:11;;;;;;;12.77;9.35;;;;;;;26.74;50.88;94864.34;5006692;28;20307;-63
2023/06/02 05:45:38;;;;;;;11.95;8.90;;;;;;;27.87;48.00;94863.16;5007663;28;20210;-64
2023/06/02 05:48:05;;;;;;;12.48;7.50;;;;;;;28.77;42.50;94861.34;5006108;28;20294;-63
2023/06/02 05:50:32;;;;;;;9.52;8.07;;;;;;;30.11;40.67;94856.84;5006238;28;20317;-63
2023/06/02 05:52:58;;;;;;;8.57;7.72;;;;;;;30.77;38.68;94857.91;5007563;28;20813;-64
2023/06/02 05:55:25;;;;;;;12.95;7.68;;;;;;;31.94;37.48;94858.75;5005844;28;20350;-63
2023/06/02 05:57:52;;;;;;;8.55;7.70;;;;;;;31.87;37.70;94850.03;5007449;28;20322;-62
2023/06/02 06:00:21;;;;;;;8.25;7.53;;;;;;;31.59;38.22;94847.28;5007100;28;20663;-64
2023/06/02 06:02:49;;;;;;;12.13;7.78;;;;;;;31.80;37.59;94844.69;5006813;28;20203;-63
2023/06/02 06:05:16;;;;;;;12.40;8.40;;;;;;;32.57;36.66;94847.41;5005855;28;20579;-63
2023/06/02 06:07:42;;;;;;;12.43;8.50;;;;;;;33.81;34.46;94850.94;5007479;28;20210;-63
2023/06/02 06:10:10;;;;;;;11.93;7.22;;;;;;;34.87;31.90;94849.22;5005123;28;20743;-64
2023/06/02 06:12:37;;;;;;;12.15;7.95;;;;;;;35.53;31.07;94841.09;5005969;28;20334;-61
2023/06/02 06:15:04;;;;;;;12.82;7.47;;;;;;;36.38;30.00;94853.00;5005041;28;20473;-64
2023/06/02 06:17:32;;;;;;;9.43;7.05;;;;;;;37.49;28.05;94844.22;5005448;28;20685;-63
2023/06/02 06:19:58;;;;;;;11.32;7.68;;;;;;;39.85;24.60;94850.34;5007621;28;20293;-65
2023/06/02 06:22:25;;;;;;;10.07;6.85;;;;;;;42.04;23.13;94848.06;5007153;28;20259;-65
2023/06/02 06:24:52;;;;;;;10.57;8.25;;;;;;;42.91;20.54;94849.59;5008714;28;20211;-65
2023/06/02 06:27:18;;;;;;;9.60;7.25;;;;;;;42.80;20.57;94847.09;5010665;28;20763;-64
2023/06/02 06:29:45;;;;;;;7.93;6.78;;;;;;;42.15;21.53;94854.28;5008588;28;20203;-64
2023/06/02 06:32:12;;;;;;;11.38;6.78;;;;;;;42.00;21.71;94838.94;5008723;28;20211;-65
2023/06/02 06:34:40;;;;;;;10.05;6.88;;;;;;;39.87;22.77;94840.28;5009323;28;21457;-65
2023/06/02 06:37:06;;;;;;;11.57;8.98;;;;;;;37.76;25.07;94837.56;5010923;28;20678;-63
2023/06/02 06:39:33;;;;;;;8.23;7.45;;;;;;;38.43;24.99;94840.88;5009277;28;20246;-64
2023/06/02 06:42:00;;;;;;;8.88;7.38;;;;;;;40.72;22.05;94834.84;5008236;28;20759;-65
2023/06/02 06:44:26;;;;;;;11.02;8.10;;;;;;;40.95;22.09;94842.66;5009283;28;21057;-64
2023/06/02 06:46:53;;;;;;;14.63;11.85;;;;;;;39.62;23.75;94846.72;5009229;28;20211;-64
2023/06/02 06:49:20;;;;;;;15.27;8.23;;;;;;;40.38;22.80;94834.84;5009396;28;20333;-64
2023/06/02 06:51:48;;;;;;;13.32;8.07;;;;;;;42.52;21.01;94842.88;5008830;28;20357;-66
2023/06/02 06:54:15;;;;;;;9.55;7.20;;;;;;;45.20;18.67;94839.41;5009412;28;20207;-65
2023/06/02 06:56:43;;;;;;;15.85;7.60;;;;;;;47.07;17.48;94835.56;5008658;28;20300;-63
2023/06/02 06:59:11;;;;;;;16.77;8.30;;;;;;;47.51;16.92;94834.56;5011108;28;20207;-64
2023/06/02 07:01:38;;;;;;;13.10;7.20;;;;;;;48.40;15.87;94831.97;5004790;28;20885;-62
2023/06/02 07:04:05;;;;;;;9.85;7.65;;;;;;;48.28;15.42;94837.81;5008946;28;20215;-63
2023/06/02 07:06:32;;;;;;;7.57;7.00;;;;;;;47.02;15.98;94832.88;5007978;28;20298;-61
2023/06/02 07:09:00;;;;;;;10.90;7.70;;;;;;;45.69;16.81;94832.25;5008621;28;20211;-62
2023/06/02 07:11:26;;;;;;;132.70;118.40;;;;;;;45.06;18.02;94834.59;5009169;28;20281;-63
2023/06/02 07:13:53;;;;;;;16.85;11.38;;;;;;;45.99;17.64;94833.19;5009610;28;20266;-64
2023/06/02 07:16:21;;;;;;;9.75;7.30;;;;;;;46.55;16.72;94838.16;5008309;28;20252;-62
2023/06/02 07:18:47;;;;;;;7.78;6.72;;;;;;;44.38;17.93;94839.44;5008860;28;20207;-62
2023/06/02 07:21:14;;;;;;;7.60;6.85;;;;;;;40.87;20.85;94842.25;5008675;28;20886;-62
2023/06/02 07:23:41;;;;;;;9.02;7.47;;;;;;;37.92;24.36;94841.44;5008236;28;20233;-63
2023/06/02 07:26:09;;;;;;;8.00;7.15;;;;;;;35.81;25.98;94842.63;5008364;28;20230;-62
2023/06/02 07:28:35;;;;;;;8.65;6.97;;;;;;;35.28;27.54;94838.34;5007555;28;22156;-63
2023/06/02 07:31:02;;;;;;;8.13;7.28;;;;;;;35.71;27.41;94837.75;5008119;28;20265;-63
2023/06/02 07:33:29;;;;;;;12.07;7.22;;;;;;;35.64;26.82;94842.25;5009085;28;20210;-64
2023/06/02 07:35:55;;;;;;;10.05;7.13;;;;;;;34.83;28.74;94855.91;5006134;28;20642;-64
2023/06/02 07:38:22;;;;;;;7.53;6.82;;;;;;;32.84;31.02;94858.97;5006179;28;20764;-63
2023/06/02 07:40:49;;;;;;;7.63;7.03;;;;;;;30.61;33.95;94858.06;5005735;28;20346;-65
2023/06/02 07:43:17;;;;;;;9.48;7.22;;;;;;;29.24;36.74;94866.59;5008018;28;20819;-63
2023/06/02 07:45:44;;;;;;;11.88;6.60;;;;;;;28.29;39.71;94865.66;5007462;28;20684;-61
2023/06/02 07:48:11;;;;;;;9.13;6.60;;;;;;;27.62;40.69;94864.91;5007197;28;20562;-63
2023/06/02 07:50:38;;;;;;;8.48;6.45;;;;;;;27.30;41.74;94867.41;5008554;28;20230;-63
2023/06/02 07:53:04;;;;;;;7.65;6.88;;;;;;;27.00;42.01;94863.53;5006824;28;20978;-62
2023/06/02 07:55:31;;;;;;;12.70;6.60;;;;;;;26.62;43.05;94869.97;5006987;28;20301;-64
2023/06/02 07:57:58;;;;;;;10.48;9.20;;;;;;;26.41;43.90;94873.75;5007697;28;20293;-64
2023/06/02 08:00:26;;;;;;;18.63;7.55;;;;;;;26.52;44.53;94874.47;5007570;28;20338;-62
2023/06/02 08:02:53;;;;;;;8.07;7.28;;;;;;;26.52;44.02;94867.47;5008048;28;20729;-64
2023/06/02 08:05:20;;;;;;;12.30;7.13;;;;;;;26.37;45.49;94855.97;5006482;28;20469;-62
2023/06/02 08:07:47;;;;;;;7.78;6.50;;;;;;;26.01;46.50;94862.97;5009196;28;20218;-62
2023/06/02 08:10:13;;;;;;;8.85;6.65;;;;;;;25.97;46.45;94859.88;5007932;28;20199;-62
2023/06/02 08:12:40;;;;;;;10.85;6.43;;;;;;;26.21;46.19;94866.25;5008234;28;20702;-62
2023/06/02 08:15:08;;;;;;;7.72;5.63;;;;;;;26.59;46.01;94855.47;5005774;28;20725;-62
2023/06/02 08:17:36;;;;;;;6.05;5.50;;;;;;;26.88;44.55;94849.91;5007131;28;20211;-64
2023/06/02 08:20:05;;;;;;;9.32;6.13;;;;;;;27.20;42.80;94849.28;5008146;28;20232;-62
2023/06/02 08:22:32;;;;;;;7.93;5.88;;;;;;;27.51;42.92;94846.09;5007462;28;20755;-61
2023/06/02 08:24:59;;;;;;;8.35;6.38;;;;;;;27.97;42.35;94840.31;5007600;28;20203;-62
2023/06/02 08:27:26;;;;;;;7.32;6.72;;;;;;;28.66;41.40;94846.00;5007675;28;20299;-61
2023/06/02 08:29:53;;;;;;;10.88;5.47;;;;;;;29.12;39.97;94836.56;5007406;28;20230;-61
2023/06/02 08:32:22;;;;;;;7.82;5.78;;;;;;;29.61;38.75;94831.94;5006156;28;21458;-62
2023/06/02 08:34:51;;;;;;;10.65;6.28;;;;;;;30.16;36.74;94828.28;5006550;28;20203;-63
2023/06/02 08:37:18;;;;;;;7.72;5.28;;;;;;;30.91;36.14;94820.38;5006476;28;20623;-62
2023/06/02 08:39:45;;;;;;;6.93;6.25;;;;;;;32.89;33.62;94808.38;5007608;28;20628;-64
2023/06/02 08:42:12;;;;;;;7.22;6.40;;;;;;;34.69;30.30;94806.75;5006701;28;20239;-62
2023/06/02 08:44:40;;;;;;;7.43;5.75;;;;;;;36.09;28.53;94804.19;5007185;28;20356;-63
2023/06/02 08:47:10;;;;;;;10.80;5.80;;;;;;;38.12;25.83;94798.72;5006729;28;20211;-63
2023/06/02 08:49:37;;;;;;;8.00;6.07;;;;;;;38.30;24.38;94801.28;5007754;28;20209;-64
2023/06/02 08:52:11;;;;;;;8.05;6.05;;;;;;;39.82;23.04;94793.13;5006828;28;20314;-64
2023/06/02 08:54:37;;;;;;;7.60;6.05;;;;;;;41.92;20.88;94785.16;5006353;28;21026;-64
2023/06/02 08:57:05;;;;;;;7.50;6.68;;;;;;;43.48;19.60;94784.63;5006210;28;20310;-64
2023/06/02 08:59:33;;;;;;;8.23;5.53;;;;;;;45.28;18.11;94771.78;5007451;28;20296;-63
2023/06/02 09:02:00;;;;;;;7.07;6.47;;;;;;;46.06;17.26;94766.50;5005994;28;20218;-63
2023/06/02 09:04:27;;;;;;;6.68;5.90;;;;;;;47.52;16.57;94770.75;5003958;28;20313;-63
2023/06/02 09:07:20;;;;;;;6.13;5.68;;;;;;;47.51;16.24;94767.25;5005148;28;20220;-62
2023/06/02 09:09:49;;;;;;;6.25;5.80;;;;;;;46.11;16.79;94758.41;5006038;28;20677;-64
2023/06/02 09:12:17;;;;;;;5.82;5.32;;;;;;;46.26;16.46;94752.94;5005405;28;20899;-63
2023/06/02 09:14:44;;;;;;;5.90;5.40;;;;;;;45.60;16.79;94748.00;5003717;28;20213;-63
2023/06/02 09:17:28;;;;;;;5.32;5.00;;;;;;;45.38;15.04;94755.63;5004337;28;20258;-63
2023/06/02 09:19:56;;;;;;;4.80;4.45;;;;;;;44.16;16.88;94753.19;5005911;28;20206;-63
2023/06/02 09:22:25;;;;;;;5.07;4.55;;;;;;;42.41;16.51;94761.84;5007971;28;20195;-64
2023/06/02 09:24:53;;;;;;;6.88;5.15;;;;;;;42.11;18.21;94757.84;5005232;28;21237;-63
2023/06/02 09:27:20;;;;;;;6.63;4.30;;;;;;;42.47;18.42;94757.34;5005299;28;20217;-64
2023/06/02 09:29:47;;;;;;;5.65;4.75;;;;;;;42.09;17.89;94743.94;5006867;28;20207;-63
2023/06/02 09:32:16;;;;;;;5.38;4.93;;;;;;;40.51;19.22;94748.50;5006461;28;20207;-61
2023/06/02 09:34:43;;;;;;;5.28;4.90;;;;;;;38.91;20.90;94744.25;5006203;28;22810;-64
2023/06/02 09:37:12;;;;;;;7.70;5.25;;;;;;;37.90;22.66;94747.19;5006164;28;20677;-61
2023/06/02 09:39:43;;;;;;;5.00;4.63;;;;;;;37.71;22.56;94736.66;5005694;28;20802;-62
2023/06/02 09:42:10;;;;;;;9.35;5.65;;;;;;;37.11;23.87;94733.97;5005710;28;20277;-63
2023/06/02 09:44:38;;;;;;;6.30;5.68;;;;;;;36.53;24.45;94740.72;5006739;28;20207;-62
2023/06/02 09:47:19;;;;;;;4.95;4.28;;;;;;;35.69;25.48;94734.84;5006635;28;20301;-62
2023/06/02 09:49:46;;;;;;;5.28;4.70;;;;;;;33.76;26.35;94737.34;5001431;28;20685;-62
2023/06/02 09:52:14;;;;;;;6.07;5.03;;;;;;;31.68;29.44;94736.63;5003981;28;20673;-63
2023/06/02 09:54:44;;;;;;;5.57;5.07;;;;;;;30.50;32.60;94738.66;4998128;28;20203;-62
2023/06/02 09:57:12;;;;;;;6.15;5.55;;;;;;;30.13;34.51;94739.53;5001671;28;20210;-65
2023/06/02 09:59:40;;;;;;;5.32;4.97;;;;;;;30.05;34.55;94735.19;5009012;28;20207;-62
2023/06/02 10:02:07;;;;;;;6.97;4.75;;;;;;;29.87;35.24;94733.84;5010046;28;20296;-62
2023/06/02 10:04:34;;;;;;;5.97;4.65;;;;;;;30.06;33.51;94736.00;5009880;28;20384;-63
2023/06/02 10:07:13;;;;;;;4.75;4.18;;;;;;;30.25;33.75;94735.47;5010306;28;20210;-63
2023/06/02 10:09:54;;;;;;;7.20;4.78;;;;;;;30.25;34.74;94721.53;5006817;28;20347;-63
2023/06/02 10:12:33;;;;;;;5.07;4.70;;;;;;;30.16;35.09;94723.47;5004835;28;20208;-62
2023/06/02 10:15:45;;;;;;;6.15;5.63;;;;;;;29.18;36.31;94714.72;5006244;28;20222;-62
2023/06/02 10:18:33;;;;;;;9.73;5.38;;;;;;;28.54;37.64;94716.63;4988837;28;20676;-63
2023/06/02 10:21:10;;;;;;;9.88;5.50;;;;;;;27.91;38.63;94725.25;5007981;28;20300;-63
2023/06/02 10:23:50;;;;;;;7.72;5.85;;;;;;;27.36;39.99;94718.84;5009641;28;20668;-62
2023/06/02 10:26:35;;;;;;;7.05;5.07;;;;;;;26.98;40.93;94709.81;5005914;28;20340;-63
2023/06/02 10:29:05;;;;;;;5.57;5.07;;;;;;;27.32;40.92;94716.72;5006959;28;20207;-63
2023/06/02 10:31:32;;;;;;;5.13;4.82;;;;;;;27.80;40.21;94712.50;5007382;28;20207;-62
2023/06/02 10:34:00;;;;;;;8.15;5.70;;;;;;;28.47;38.55;94713.03;4999271;28;20307;-61
2023/06/02 10:36:28;;;;;;;5.50;5.00;;;;;;;28.48;38.39;94714.66;5001191;28;22007;-63
2023/06/02 10:38:55;;;;;;;7.95;4.97;;;;;;;27.95;37.56;94708.28;5003747;28;20293;-62
2023/06/02 10:42:07;;;;;;;8.52;5.35;;;;;;;27.39;38.96;94708.09;5008598;28;20309;-63
2023/06/02 10:44:34;;;;;;;5.40;4.78;;;;;;;26.95;39.17;94704.94;5008264;28;20744;-61
2023/06/02 10:47:43;;;;;;;8.75;5.00;;;;;;;26.78;39.99;94703.22;5009433;28;20299;-62
2023/06/02 10:50:11;;;;;;;5.78;4.63;;;;;;;26.86;40.04;94695.41;4991642;28;20622;-63
2023/06/02 10:53:09;;;;;;;6.30;5.75;;;;;;;26.73;39.64;94689.81;5007663;28;20651;-62
2023/06/02 10:55:36;;;;;;;6.82;4.32;;;;;;;26.68;39.58;94697.34;5002792;28;21881;-61
2023/06/02 10:58:05;;;;;;;6.45;4.72;;;;;;;26.49;40.12;94692.34;5004029;28;20211;-62
2023/06/02 11:00:45;;;;;;;4.70;4.40;;;;;;;26.27;40.22;94696.31;5005963;28;22047;-60
2023/06/02 11:03:39;;;;;;;4.72;4.25;;;;;;;26.13;40.74;94700.31;5005827;28;20207;-61
2023/06/02 11:06:18;;;;;;;4.65;4.35;;;;;;;26.14;39.88;94688.94;4959999;28;20211;-63
2023/06/02 11:08:44;;;;;;;5.18;4.60;;;;;;;26.22;39.87;94683.75;5006472;28;20768;-61
2023/06/02 11:11:11;;;;;;;4.95;4.43;;;;;;;26.32;39.98;94681.06;5006910;28;20283;-61
2023/06/02 11:13:58;;;;;;;6.32;4.85;;;;;;;26.43;40.61;94679.00;5007460;28;20280;-62
2023/06/02 11:16:27;;;;;;;5.07;4.35;;;;;;;26.46;38.78;94677.88;5005055;28;20202;-62
2023/06/02 11:18:53;;;;;;;5.28;4.78;;;;;;;26.34;40.02;94673.91;5008937;28;20265;-62
2023/06/02 11:21:22;;;;;;;5.22;4.72;;;;;;;26.41;39.16;94673.13;5008670;28;20417;-63
2023/06/02 11:23:49;;;;;;;8.43;4.50;;;;;;;26.75;39.55;94677.44;5009419;28;20211;-62
2023/06/02 11:26:17;;;;;;;5.30;4.80;;;;;;;26.66;36.45;94678.41;5007809;28;20207;-62
2023/06/02 11:28:44;;;;;;;5.32;4.57;;;;;;;26.67;36.94;94669.63;5007464;28;20318;-63
2023/06/02 11:31:13;;;;;;;4.70;4.30;;;;;;;26.86;38.64;94664.13;5007405;28;21179;-63
2023/06/02 11:33:41;;;;;;;5.05;4.65;;;;;;;27.04;37.75;94667.44;5008179;28;20951;-63
2023/06/02 11:36:09;;;;;;;4.53;4.22;;;;;;;27.25;38.53;94663.53;5007567;28;20211;-63